sensor_id;sensor_type;location;lat;lon;timestamp;P1;durP1;ratioP1;P2;durP2;ratioP2
47367;SDS011;34646;47.964;7.982;2022-11-18T00:04:30;17.65;;;8.05;;
47367;SDS011;34646;47.964;7.982;2022-11-18T00:10:30;19.97;;;8.33;;
47367;SDS011;34646;47.964;7.982;2022-11-18T00:16:31;19.00;;;7.80;;
47367;SDS011;34646;47.964;7.982;2022-11-18T00:22:31;18.47;;;8.30;;
47367;SDS011;34646;47.964;7.982;2022-11-18T00:28:32;18.67;;;8.67;;
47367;SDS011;34646;47.964;7.982;2022-11-18T00:40:34;15.27;;;7.57;;
47367;SDS011;34646;47.964;7.982;2022-11-18T00:46:35;16.70;;;8.03;;
47367;SDS011;34646;47.964;7.982;2022-11-18T00:52:36;13.30;;;7.03;;
47367;SDS011;34646;47.964;7.982;2022-11-18T00:58:36;15.53;;;6.90;;
47367;SDS011;34646;47.964;7.982;2022-11-18T01:04:37;14.10;;;7.40;;
47367;SDS011;34646;47.964;7.982;2022-11-18T01:10:38;13.13;;;6.73;;
47367;SDS011;34646;47.964;7.982;2022-11-18T01:16:39;14.80;;;6.95;;
47367;SDS011;34646;47.964;7.982;2022-11-18T01:22:40;15.70;;;6.80;;
47367;SDS011;34646;47.964;7.982;2022-11-18T01:28:41;14.33;;;6.70;;
47367;SDS011;34646;47.964;7.982;2022-11-18T01:34:42;12.85;;;6.38;;
47367;SDS011;34646;47.964;7.982;2022-11-18T01:40:43;15.47;;;6.50;;
47367;SDS011;34646;47.964;7.982;2022-11-18T01:46:43;14.37;;;6.10;;
47367;SDS011;34646;47.964;7.982;2022-11-18T01:52:44;15.63;;;6.93;;
47367;SDS011;34646;47.964;7.982;2022-11-18T02:04:53;12.98;;;6.05;;
47367;SDS011;34646;47.964;7.982;2022-11-18T02:10:55;13.88;;;6.90;;
47367;SDS011;34646;47.964;7.982;2022-11-18T02:23:42;13.50;;;6.55;;
47367;SDS011;34646;47.964;7.982;2022-11-18T02:29:54;10.27;;;5.83;;
47367;SDS011;34646;47.964;7.982;2022-11-18T02:36:15;10.80;;;5.32;;
47367;SDS011;34646;47.964;7.982;2022-11-18T02:42:23;13.20;;;5.45;;
47367;SDS011;34646;47.964;7.982;2022-11-18T02:48:27;10.60;;;6.28;;
47367;SDS011;34646;47.964;7.982;2022-11-18T02:54:30;9.90;;;5.85;;
47367;SDS011;34646;47.964;7.982;2022-11-18T03:00:33;12.63;;;5.90;;
47367;SDS011;34646;47.964;7.982;2022-11-18T03:06:36;12.23;;;5.30;;
47367;SDS011;34646;47.964;7.982;2022-11-18T03:13:01;13.38;;;6.20;;
47367;SDS011;34646;47.964;7.982;2022-11-18T03:19:33;10.55;;;5.40;;
47367;SDS011;34646;47.964;7.982;2022-11-18T03:26:00;11.07;;;5.68;;
47367;SDS011;34646;47.964;7.982;2022-11-18T03:32:16;11.82;;;5.63;;
47367;SDS011;34646;47.964;7.982;2022-11-18T03:38:23;10.52;;;4.90;;
47367;SDS011;34646;47.964;7.982;2022-11-18T03:44:29;8.75;;;4.80;;
47367;SDS011;34646;47.964;7.982;2022-11-18T03:50:34;11.55;;;4.95;;
47367;SDS011;34646;47.964;7.982;2022-11-18T03:56:40;11.50;;;5.75;;
47367;SDS011;34646;47.964;7.982;2022-11-18T04:02:46;10.15;;;4.93;;
47367;SDS011;34646;47.964;7.982;2022-11-18T04:08:50;11.48;;;5.05;;
47367;SDS011;34646;47.964;7.982;2022-11-18T04:14:54;7.90;;;4.40;;
47367;SDS011;34646;47.964;7.982;2022-11-18T04:20:55;10.50;;;5.23;;
47367;SDS011;34646;47.964;7.982;2022-11-18T04:26:56;9.37;;;4.67;;
47367;SDS011;34646;47.964;7.982;2022-11-18T04:32:57;9.20;;;4.50;;
47367;SDS011;34646;47.964;7.982;2022-11-18T04:38:58;8.73;;;4.63;;
47367;SDS011;34646;47.964;7.982;2022-11-18T04:44:58;10.23;;;5.10;;
47367;SDS011;34646;47.964;7.982;2022-11-18T04:51:05;11.13;;;4.70;;
47367;SDS011;34646;47.964;7.982;2022-11-18T04:57:06;9.35;;;4.93;;
47367;SDS011;34646;47.964;7.982;2022-11-18T05:03:06;7.93;;;4.70;;
47367;SDS011;34646;47.964;7.982;2022-11-18T05:09:07;7.27;;;4.30;;
47367;SDS011;34646;47.964;7.982;2022-11-18T05:15:09;8.68;;;4.57;;
47367;SDS011;34646;47.964;7.982;2022-11-18T05:21:09;8.70;;;3.87;;
47367;SDS011;34646;47.964;7.982;2022-11-18T05:27:10;8.60;;;4.03;;
47367;SDS011;34646;47.964;7.982;2022-11-18T05:33:11;9.00;;;4.45;;
47367;SDS011;34646;47.964;7.982;2022-11-18T05:39:12;9.10;;;3.93;;
47367;SDS011;34646;47.964;7.982;2022-11-18T05:45:13;8.60;;;4.43;;
47367;SDS011;34646;47.964;7.982;2022-11-18T05:51:15;13.23;;;4.28;;
47367;SDS011;34646;47.964;7.982;2022-11-18T05:57:16;11.05;;;5.07;;
47367;SDS011;34646;47.964;7.982;2022-11-18T06:03:21;15.60;;;6.47;;
47367;SDS011;34646;47.964;7.982;2022-11-18T06:09:25;15.10;;;6.63;;
47367;SDS011;34646;47.964;7.982;2022-11-18T06:15:31;27.65;;;12.27;;
47367;SDS011;34646;47.964;7.982;2022-11-18T06:21:35;39.72;;;16.95;;
47367;SDS011;34646;47.964;7.982;2022-11-18T06:27:36;34.63;;;16.13;;
47367;SDS011;34646;47.964;7.982;2022-11-18T06:33:37;32.67;;;16.47;;
47367;SDS011;34646;47.964;7.982;2022-11-18T06:39:37;35.87;;;16.77;;
47367;SDS011;34646;47.964;7.982;2022-11-18T06:45:38;34.33;;;15.10;;
47367;SDS011;34646;47.964;7.982;2022-11-18T06:51:59;31.13;;;14.57;;
47367;SDS011;34646;47.964;7.982;2022-11-18T06:57:59;27.63;;;13.83;;
47367;SDS011;34646;47.964;7.982;2022-11-18T07:04:00;29.07;;;14.00;;
47367;SDS011;34646;47.964;7.982;2022-11-18T07:10:01;33.03;;;12.97;;
47367;SDS011;34646;47.964;7.982;2022-11-18T07:16:03;21.93;;;10.47;;
47367;SDS011;34646;47.964;7.982;2022-11-18T07:22:11;23.92;;;10.40;;
47367;SDS011;34646;47.964;7.982;2022-11-18T07:28:13;23.17;;;10.05;;
47367;SDS011;34646;47.964;7.982;2022-11-18T07:34:14;22.83;;;9.87;;
47367;SDS011;34646;47.964;7.982;2022-11-18T07:40:14;29.13;;;12.90;;
47367;SDS011;34646;47.964;7.982;2022-11-18T07:52:20;42.47;;;13.88;;
47367;SDS011;34646;47.964;7.982;2022-11-18T07:58:21;30.77;;;12.70;;
47367;SDS011;34646;47.964;7.982;2022-11-18T08:04:22;28.67;;;12.87;;
47367;SDS011;34646;47.964;7.982;2022-11-18T08:10:23;34.25;;;13.07;;
47367;SDS011;34646;47.964;7.982;2022-11-18T08:16:24;29.77;;;12.93;;
47367;SDS011;34646;47.964;7.982;2022-11-18T08:22:25;28.80;;;12.88;;
47367;SDS011;34646;47.964;7.982;2022-11-18T08:28:26;27.93;;;12.07;;
47367;SDS011;34646;47.964;7.982;2022-11-18T08:34:27;25.10;;;11.57;;
47367;SDS011;34646;47.964;7.982;2022-11-18T08:40:27;25.67;;;11.03;;
47367;SDS011;34646;47.964;7.982;2022-11-18T08:46:28;11.47;;;4.87;;
47367;SDS011;34646;47.964;7.982;2022-11-18T08:52:29;20.58;;;6.03;;
47367;SDS011;34646;47.964;7.982;2022-11-18T08:58:30;14.20;;;6.20;;
47367;SDS011;34646;47.964;7.982;2022-11-18T09:04:31;13.90;;;5.50;;
47367;SDS011;34646;47.964;7.982;2022-11-18T09:10:31;13.13;;;6.30;;
47367;SDS011;34646;47.964;7.982;2022-11-18T09:22:35;13.77;;;6.50;;
47367;SDS011;34646;47.964;7.982;2022-11-18T09:28:36;17.25;;;6.75;;
47367;SDS011;34646;47.964;7.982;2022-11-18T09:34:37;11.13;;;5.13;;
47367;SDS011;34646;47.964;7.982;2022-11-18T09:41:14;15.50;;;6.23;;
47367;SDS011;34646;47.964;7.982;2022-11-18T09:53:31;12.45;;;5.78;;
47367;SDS011;34646;47.964;7.982;2022-11-18T09:59:32;15.03;;;5.67;;
47367;SDS011;34646;47.964;7.982;2022-11-18T10:12:26;12.68;;;5.75;;
47367;SDS011;34646;47.964;7.982;2022-11-18T10:18:47;13.27;;;5.38;;
47367;SDS011;34646;47.964;7.982;2022-11-18T10:24:55;10.27;;;5.30;;
47367;SDS011;34646;47.964;7.982;2022-11-18T10:31:04;13.45;;;5.28;;
47367;SDS011;34646;47.964;7.982;2022-11-18T10:49:50;12.30;;;4.95;;
47367;SDS011;34646;47.964;7.982;2022-11-18T10:55:56;12.52;;;5.00;;
47367;SDS011;34646;47.964;7.982;2022-11-18T11:08:22;8.73;;;4.97;;
47367;SDS011;34646;47.964;7.982;2022-11-18T11:20:31;12.60;;;4.38;;
47367;SDS011;34646;47.964;7.982;2022-11-18T11:26:33;14.57;;;6.77;;
47367;SDS011;34646;47.964;7.982;2022-11-18T12:04:07;25.02;;;8.10;;
47367;SDS011;34646;47.964;7.982;2022-11-18T12:35:22;45.95;;;20.80;;
47367;SDS011;34646;47.964;7.982;2022-11-18T12:42:00;42.00;;;20.70;;
47367;SDS011;34646;47.964;7.982;2022-11-18T12:54:44;38.25;;;18.70;;
47367;SDS011;34646;47.964;7.982;2022-11-18T13:00:47;40.70;;;18.50;;
47367;SDS011;34646;47.964;7.982;2022-11-18T13:06:51;42.88;;;17.23;;
47367;SDS011;34646;47.964;7.982;2022-11-18T13:12:54;38.63;;;16.88;;
47367;SDS011;34646;47.964;7.982;2022-11-18T13:18:55;34.95;;;14.77;;
47367;SDS011;34646;47.964;7.982;2022-11-18T13:24:56;39.07;;;13.60;;
47367;SDS011;34646;47.964;7.982;2022-11-18T13:31:01;29.20;;;13.93;;
47367;SDS011;34646;47.964;7.982;2022-11-18T13:37:29;37.58;;;14.05;;
47367;SDS011;34646;47.964;7.982;2022-11-18T13:43:31;25.77;;;12.43;;
47367;SDS011;34646;47.964;7.982;2022-11-18T13:49:36;27.30;;;12.60;;
47367;SDS011;34646;47.964;7.982;2022-11-18T13:55:43;31.83;;;12.27;;
47367;SDS011;34646;47.964;7.982;2022-11-18T14:01:55;29.35;;;12.10;;
47367;SDS011;34646;47.964;7.982;2022-11-18T14:08:03;26.50;;;11.50;;
47367;SDS011;34646;47.964;7.982;2022-11-18T14:14:07;24.45;;;11.55;;
47367;SDS011;34646;47.964;7.982;2022-11-18T14:20:14;26.95;;;11.57;;
47367;SDS011;34646;47.964;7.982;2022-11-18T14:26:25;28.75;;;11.73;;
47367;SDS011;34646;47.964;7.982;2022-11-18T14:32:27;29.17;;;10.93;;
47367;SDS011;34646;47.964;7.982;2022-11-18T14:44:30;23.67;;;11.10;;
47367;SDS011;34646;47.964;7.982;2022-11-18T14:50:31;27.57;;;10.37;;
47367;SDS011;34646;47.964;7.982;2022-11-18T14:56:32;23.07;;;10.33;;
47367;SDS011;34646;47.964;7.982;2022-11-18T15:02:33;25.50;;;9.35;;
47367;SDS011;34646;47.964;7.982;2022-11-18T15:08:34;21.83;;;9.67;;
47367;SDS011;34646;47.964;7.982;2022-11-18T15:14:35;24.03;;;8.73;;
47367;SDS011;34646;47.964;7.982;2022-11-18T15:20:35;21.20;;;7.97;;
47367;SDS011;34646;47.964;7.982;2022-11-18T15:26:38;22.67;;;9.20;;
47367;SDS011;34646;47.964;7.982;2022-11-18T15:32:40;27.73;;;7.95;;
47367;SDS011;34646;47.964;7.982;2022-11-18T15:38:42;26.85;;;8.88;;
47367;SDS011;34646;47.964;7.982;2022-11-18T15:44:44;32.72;;;9.40;;
47367;SDS011;34646;47.964;7.982;2022-11-18T15:50:44;28.55;;;9.18;;
47367;SDS011;34646;47.964;7.982;2022-11-18T15:56:45;22.43;;;8.77;;
47367;SDS011;34646;47.964;7.982;2022-11-18T16:02:46;27.67;;;8.80;;
47367;SDS011;34646;47.964;7.982;2022-11-18T16:08:46;19.93;;;8.03;;
47367;SDS011;34646;47.964;7.982;2022-11-18T16:14:47;30.47;;;11.00;;
47367;SDS011;34646;47.964;7.982;2022-11-18T16:21:08;22.48;;;8.70;;
47367;SDS011;34646;47.964;7.982;2022-11-18T16:27:09;24.57;;;9.77;;
47367;SDS011;34646;47.964;7.982;2022-11-18T16:33:09;23.20;;;9.10;;
47367;SDS011;34646;47.964;7.982;2022-11-18T16:39:14;40.37;;;15.23;;
47367;SDS011;34646;47.964;7.982;2022-11-18T16:45:25;41.70;;;15.88;;
47367;SDS011;34646;47.964;7.982;2022-11-18T16:51:26;37.03;;;15.00;;
47367;SDS011;34646;47.964;7.982;2022-11-18T16:57:29;35.20;;;13.55;;
47367;SDS011;34646;47.964;7.982;2022-11-18T17:03:31;35.22;;;14.00;;
47367;SDS011;34646;47.964;7.982;2022-11-18T17:09:32;28.53;;;12.13;;
47367;SDS011;34646;47.964;7.982;2022-11-18T17:15:34;42.17;;;13.60;;
47367;SDS011;34646;47.964;7.982;2022-11-18T17:21:34;34.45;;;12.43;;
47367;SDS011;34646;47.964;7.982;2022-11-18T17:27:35;29.70;;;11.77;;
47367;SDS011;34646;47.964;7.982;2022-11-18T17:33:37;29.02;;;11.38;;
47367;SDS011;34646;47.964;7.982;2022-11-18T17:45:39;29.90;;;9.98;;
47367;SDS011;34646;47.964;7.982;2022-11-18T17:51:40;31.33;;;12.15;;
47367;SDS011;34646;47.964;7.982;2022-11-18T17:57:41;24.23;;;11.27;;
47367;SDS011;34646;47.964;7.982;2022-11-18T18:03:42;31.27;;;12.53;;
47367;SDS011;34646;47.964;7.982;2022-11-18T18:09:43;28.48;;;11.63;;
47367;SDS011;34646;47.964;7.982;2022-11-18T18:15:44;31.50;;;10.80;;
47367;SDS011;34646;47.964;7.982;2022-11-18T18:21:44;23.43;;;9.23;;
47367;SDS011;34646;47.964;7.982;2022-11-18T18:27:45;27.97;;;9.77;;
47367;SDS011;34646;47.964;7.982;2022-11-18T18:33:46;22.90;;;8.77;;
47367;SDS011;34646;47.964;7.982;2022-11-18T18:39:47;24.67;;;8.87;;
47367;SDS011;34646;47.964;7.982;2022-11-18T18:45:51;26.70;;;8.27;;
47367;SDS011;34646;47.964;7.982;2022-11-18T18:52:10;20.88;;;8.00;;
47367;SDS011;34646;47.964;7.982;2022-11-18T18:58:11;20.00;;;7.90;;
47367;SDS011;34646;47.964;7.982;2022-11-18T19:04:12;25.33;;;7.17;;
47367;SDS011;34646;47.964;7.982;2022-11-18T19:10:13;32.83;;;7.75;;
47367;SDS011;34646;47.964;7.982;2022-11-18T19:16:14;28.03;;;7.73;;
47367;SDS011;34646;47.964;7.982;2022-11-18T19:22:14;27.73;;;8.10;;
47367;SDS011;34646;47.964;7.982;2022-11-18T19:28:15;17.53;;;5.90;;
47367;SDS011;34646;47.964;7.982;2022-11-18T19:34:16;20.70;;;7.57;;
47367;SDS011;34646;47.964;7.982;2022-11-18T19:40:16;15.67;;;6.40;;
47367;SDS011;34646;47.964;7.982;2022-11-18T19:46:17;18.37;;;6.27;;
47367;SDS011;34646;47.964;7.982;2022-11-18T19:52:18;20.93;;;6.73;;
47367;SDS011;34646;47.964;7.982;2022-11-18T19:58:18;18.70;;;6.67;;
47367;SDS011;34646;47.964;7.982;2022-11-18T20:04:19;24.57;;;6.10;;
47367;SDS011;34646;47.964;7.982;2022-11-18T20:10:20;24.30;;;6.03;;
47367;SDS011;34646;47.964;7.982;2022-11-18T20:16:21;16.87;;;5.67;;
47367;SDS011;34646;47.964;7.982;2022-11-18T20:22:23;17.80;;;5.63;;
47367;SDS011;34646;47.964;7.982;2022-11-18T20:28:24;15.77;;;5.37;;
47367;SDS011;34646;47.964;7.982;2022-11-18T20:34:25;14.63;;;5.13;;
47367;SDS011;34646;47.964;7.982;2022-11-18T20:40:25;17.00;;;5.83;;
47367;SDS011;34646;47.964;7.982;2022-11-18T20:46:27;16.50;;;5.25;;
47367;SDS011;34646;47.964;7.982;2022-11-18T20:52:28;14.50;;;5.30;;
47367;SDS011;34646;47.964;7.982;2022-11-18T20:58:29;14.03;;;5.30;;
47367;SDS011;34646;47.964;7.982;2022-11-18T21:04:31;13.45;;;4.88;;
47367;SDS011;34646;47.964;7.982;2022-11-18T21:10:32;19.90;;;5.00;;
47367;SDS011;34646;47.964;7.982;2022-11-18T21:16:34;17.30;;;5.75;;
47367;SDS011;34646;47.964;7.982;2022-11-18T21:22:35;10.07;;;5.00;;
47367;SDS011;34646;47.964;7.982;2022-11-18T21:28:35;12.47;;;4.93;;
47367;SDS011;34646;47.964;7.982;2022-11-18T21:34:36;14.30;;;4.17;;
47367;SDS011;34646;47.964;7.982;2022-11-18T21:40:37;12.07;;;4.47;;
47367;SDS011;34646;47.964;7.982;2022-11-18T21:46:38;15.20;;;4.37;;
47367;SDS011;34646;47.964;7.982;2022-11-18T21:52:40;13.77;;;5.18;;
47367;SDS011;34646;47.964;7.982;2022-11-18T21:58:40;9.70;;;4.20;;
47367;SDS011;34646;47.964;7.982;2022-11-18T22:04:42;10.93;;;4.25;;
47367;SDS011;34646;47.964;7.982;2022-11-18T22:10:51;7.38;;;4.05;;
47367;SDS011;34646;47.964;7.982;2022-11-18T22:16:52;13.83;;;4.50;;
47367;SDS011;34646;47.964;7.982;2022-11-18T22:22:53;6.97;;;3.50;;
47367;SDS011;34646;47.964;7.982;2022-11-18T22:28:54;12.63;;;4.10;;
47367;SDS011;34646;47.964;7.982;2022-11-18T22:34:56;9.23;;;3.80;;
47367;SDS011;34646;47.964;7.982;2022-11-18T22:40:57;11.23;;;4.30;;
47367;SDS011;34646;47.964;7.982;2022-11-18T22:46:59;9.10;;;3.90;;
47367;SDS011;34646;47.964;7.982;2022-11-18T22:53:00;10.73;;;4.03;;
47367;SDS011;34646;47.964;7.982;2022-11-18T22:59:00;10.27;;;3.93;;
47367;SDS011;34646;47.964;7.982;2022-11-18T23:05:03;9.15;;;4.10;;
47367;SDS011;34646;47.964;7.982;2022-11-18T23:11:05;9.82;;;4.22;;
47367;SDS011;34646;47.964;7.982;2022-11-18T23:17:07;8.52;;;3.72;;
47367;SDS011;34646;47.964;7.982;2022-11-18T23:23:08;6.83;;;3.50;;
47367;SDS011;34646;47.964;7.982;2022-11-18T23:29:09;7.53;;;3.77;;
47367;SDS011;34646;47.964;7.982;2022-11-18T23:35:11;11.52;;;3.72;;
47367;SDS011;34646;47.964;7.982;2022-11-18T23:41:13;8.07;;;4.40;;
47367;SDS011;34646;47.964;7.982;2022-11-18T23:47:14;9.10;;;3.88;;
47367;SDS011;34646;47.964;7.982;2022-11-18T23:53:15;9.50;;;4.20;;
47367;SDS011;34646;47.964;7.982;2022-11-18T23:59:16;7.00;;;3.27;;
